To NAV CANADA Home Page Login to a new session Search on AWWS site Disclaimer Vers la page française équivalente Tips FAQ What's new on the site To the Forecasts and Observations / NOTAM section To "File a Flight Plan" website Publications and other links Update of the User's profile FIC Telephone Numbers My Weather Data Folder Route Weather Data Regional Weather Data Local Weather Data To the Forecasts and Observations / NOTAM section
Request Generated 04/25/2019 at 08:19:25 UTC . Weather information available at that time is displayed.

METAR/TAF

PRINCETON/BC    

LWIS CYDC 250800Z AUTO 00000KT 01/M03 A3028=
LWIS CYDC 250700Z AUTO 00000KT 02/M03 A3028=
LWIS CYDC 250600Z AUTO 00000KT 03/M03 A3027=

CYDC - No TAF is issued for this station

Your time UTC time
Weather data provided by Environment Canada and NAV CANADA